YMML/MEL METAR and TAF weather

Enter ICAO airport designator
Station Type Date Time Source
YMML METAR 2019/10/23 07:00 UTC NOAA

YMML 230700Z 15011KT CAVOK 27/02 Q1017


Station Type Date Time Source
YMML Decoded METAR 2019/10/23 07:00 UTC NOAA

Melbourne Airport, Australia (YMML) 37-40S 144-50E 141M
Oct 23, 2019 - 03:00 AM EDT / 2019.10.23 0700 UTC
Wind: from the SSE (150 degrees) at 13 MPH (11 KT):0
Visibility: greater than 7 mile(s):0
Temperature: 80 F (27 C)
Dew Point: 35 F (2 C)
Relative Humidity: 19%
Pressure (altimeter): 30.03 in. Hg (1017 hPa)
ob: YMML 230700Z 15011KT CAVOK 27/02 Q1017
cycle: 7

Station Type Date Time Source
YMML TAF 2019/10/23 06:03 UTC NOAA

TAF YMML 230453Z 2306/2412 19010KT CAVOK
FM231200 36008KT CAVOK
BECMG 2322/2323 36018G32KT CAVOK
FM240500 02012KT CAVOK

Example: see airport list